Time;durP1;ratioP1;P1;durP2;ratioP2;P2;SDS_P1;SDS_P2;PMS_P1;PMS_P2;Temp;Humidity;BMP_temperature;BMP_pressure;BME280_temperature;BME280_humidity;BME280_pressure;Samples;Min_cycle;Max_cycle;Signal;HPM_P1;HPM_P2
2023/08/12 00:01:24;;;;;;;0.00;0.00;;;;;;;;;;5075259;28;20547;-79
2023/08/12 00:03:51;;;;;;;0.00;0.00;;;;;;;;;;5074797;28;20052;-79
2023/08/12 00:06:17;;;;;;;0.00;0.00;;;;;;;;;;5090768;28;20083;-78
2023/08/12 00:08:43;;;;;;;0.00;0.00;;;;;;;;;;5073779;28;20040;-78
2023/08/12 00:11:09;;;;;;;0.00;0.00;;;;;;;;;;5074806;28;20056;-79
2023/08/12 00:13:35;;;;;;;0.00;0.00;;;;;;;;;;5074956;28;20044;-79
2023/08/12 00:16:01;;;;;;;0.00;0.00;;;;;;;;;;5073802;28;20040;-79
2023/08/12 00:18:27;;;;;;;0.20;0.00;;;;;;;;;;5073621;28;20503;-79
2023/08/12 00:20:53;;;;;;;0.00;0.00;;;;;;;;;;5073396;28;20044;-78
2023/08/12 00:23:19;;;;;;;0.00;0.00;;;;;;;;;;5074751;28;20047;-79
2023/08/12 00:25:45;;;;;;;0.00;0.00;;;;;;;;;;5073306;28;20118;-79
2023/08/12 00:28:11;;;;;;;0.00;0.00;;;;;;;;;;5073134;28;20133;-79
2023/08/12 00:30:37;;;;;;;0.00;0.00;;;;;;;;;;5073130;28;20044;-79
2023/08/12 00:33:03;;;;;;;0.00;0.00;;;;;;;;;;5073335;28;20102;-78
2023/08/12 00:35:29;;;;;;;0.00;0.00;;;;;;;;;;5073279;28;20040;-78
2023/08/12 00:37:55;;;;;;;0.00;0.00;;;;;;;;;;5073198;28;20124;-79
2023/08/12 00:40:21;;;;;;;0.00;0.00;;;;;;;;;;5074559;28;20045;-79
2023/08/12 00:42:47;;;;;;;0.00;0.00;;;;;;;;;;5074232;28;20044;-79
2023/08/12 00:45:13;;;;;;;0.00;0.00;;;;;;;;;;5072970;28;20053;-79
2023/08/12 00:47:39;;;;;;;0.00;0.00;;;;;;;;;;5074373;28;20437;-79
2023/08/12 00:50:06;;;;;;;0.00;0.00;;;;;;;;;;5072920;28;20483;-79
2023/08/12 00:52:32;;;;;;;0.00;0.00;;;;;;;;;;5074407;28;20119;-79
2023/08/12 00:54:58;;;;;;;0.00;0.00;;;;;;;;;;5072479;28;20361;-79
2023/08/12 00:57:24;;;;;;;0.00;0.00;;;;;;;;;;5074155;28;20032;-79
2023/08/12 00:59:50;;;;;;;0.00;0.00;;;;;;;;;;5072856;28;20474;-79
2023/08/12 01:02:16;;;;;;;0.00;0.00;;;;;;;;;;5072834;28;20123;-79
2023/08/12 01:04:42;;;;;;;0.00;0.00;;;;;;;;;;5073585;28;20083;-79
2023/08/12 01:07:08;;;;;;;0.00;0.00;;;;;;;;;;5072550;28;20541;-79
2023/08/12 01:09:34;;;;;;;0.00;0.00;;;;;;;;;;5073401;28;20057;-79
2023/08/12 01:12:19;;;;;;;0.00;0.00;;;;;;;;;;5072772;28;20040;-79
2023/08/12 01:14:57;;;;;;;0.00;0.00;;;;;;;;;;5072664;28;20044;-79
2023/08/12 01:17:23;;;;;;;0.00;0.00;;;;;;;;;;5073626;28;20054;-79
2023/08/12 01:19:50;;;;;;;0.00;0.00;;;;;;;;;;5072084;28;20079;-79
2023/08/12 01:22:17;;;;;;;0.00;0.00;;;;;;;;;;5073898;28;20056;-78
2023/08/12 01:24:43;;;;;;;0.00;0.00;;;;;;;;;;5073322;28;20049;-79
2023/08/12 01:27:10;;;;;;;0.00;0.00;;;;;;;;;;5089185;28;20036;-79
2023/08/12 01:29:40;;;;;;;0.00;0.00;;;;;;;;;;5072988;28;20051;-79
2023/08/12 01:32:19;;;;;;;0.00;0.00;;;;;;;;;;5073886;28;20410;-79
2023/08/12 01:34:51;;;;;;;0.00;0.00;;;;;;;;;;5073201;28;20037;-79
2023/08/12 01:37:36;;;;;;;0.00;0.00;;;;;;;;;;5073429;28;20044;-78
2023/08/12 01:40:04;;;;;;;0.00;0.00;;;;;;;;;;5072940;28;20064;-78
2023/08/12 01:42:30;;;;;;;0.00;0.00;;;;;;;;;;5073221;28;20044;-79
2023/08/12 01:44:57;;;;;;;0.00;0.00;;;;;;;;;;5071690;28;20048;-79
2023/08/12 01:47:23;;;;;;;0.00;0.00;;;;;;;;;;5072276;28;20110;-79
2023/08/12 01:49:49;;;;;;;0.00;0.00;;;;;;;;;;5073100;28;20511;-79
2023/08/12 01:52:15;;;;;;;0.00;0.00;;;;;;;;;;5072045;28;20052;-79
2023/08/12 01:54:41;;;;;;;0.00;0.00;;;;;;;;;;5072771;28;20051;-79
2023/08/12 01:57:08;;;;;;;0.00;0.00;;;;;;;;;;5073149;28;20036;-79
2023/08/12 01:59:38;;;;;;;0.00;0.00;;;;;;;;;;5071361;28;20045;-79
2023/08/12 02:02:04;;;;;;;0.00;0.00;;;;;;;;;;5073275;28;20040;-79
2023/08/12 02:04:30;;;;;;;0.00;0.00;;;;;;;;;;5072772;28;20067;-79
2023/08/12 02:06:57;;;;;;;0.00;0.00;;;;;;;;;;5072033;28;20368;-79
2023/08/12 02:09:23;;;;;;;0.00;0.00;;;;;;;;;;5072430;28;20033;-79
2023/08/12 02:11:49;;;;;;;0.00;0.00;;;;;;;;;;5071943;28;20128;-79
2023/08/12 02:14:16;;;;;;;0.00;0.00;;;;;;;;;;5088455;28;20533;-79
2023/08/12 02:16:42;;;;;;;0.00;0.00;;;;;;;;;;5072178;28;20040;-79
2023/08/12 02:19:08;;;;;;;0.00;0.00;;;;;;;;;;5071684;28;20049;-79
2023/08/12 02:21:34;;;;;;;0.00;0.00;;;;;;;;;;5071570;28;20083;-79
2023/08/12 02:24:00;;;;;;;0.00;0.00;;;;;;;;;;5072492;28;20036;-79
2023/08/12 02:26:25;;;;;;;0.00;0.00;;;;;;;;;;5071985;28;20131;-79
2023/08/12 02:28:51;;;;;;;0.00;0.00;;;;;;;;;;5071233;28;20071;-79
2023/08/12 02:31:18;;;;;;;0.00;0.00;;;;;;;;;;5088369;28;20044;-78
2023/08/12 02:33:44;;;;;;;0.00;0.00;;;;;;;;;;5072570;28;20119;-79
2023/08/12 02:36:10;;;;;;;0.00;0.00;;;;;;;;;;5072594;28;20066;-78
2023/08/12 02:38:36;;;;;;;0.00;0.00;;;;;;;;;;5072563;28;20402;-79
2023/08/12 02:41:02;;;;;;;0.00;0.00;;;;;;;;;;5071819;28;20044;-78
2023/08/12 02:43:28;;;;;;;0.00;0.00;;;;;;;;;;5071183;28;20379;-79
2023/08/12 02:45:54;;;;;;;0.00;0.00;;;;;;;;;;5072206;28;20056;-78
2023/08/12 02:48:20;;;;;;;0.00;0.00;;;;;;;;;;5071386;28;20072;-78
2023/08/12 02:50:46;;;;;;;0.00;0.00;;;;;;;;;;5072273;28;20425;-79
2023/08/12 02:53:12;;;;;;;0.00;0.00;;;;;;;;;;5071241;28;20036;-78
2023/08/12 02:55:38;;;;;;;0.00;0.00;;;;;;;;;;5072364;28;20044;-79
2023/08/12 02:58:04;;;;;;;0.00;0.00;;;;;;;;;;5071154;28;20329;-79
2023/08/12 03:00:30;;;;;;;0.00;0.00;;;;;;;;;;5070807;28;20052;-78
2023/08/12 03:02:56;;;;;;;0.00;0.00;;;;;;;;;;5072524;28;20043;-79
2023/08/12 03:05:23;;;;;;;0.00;0.00;;;;;;;;;;5072047;28;20132;-79
2023/08/12 03:07:49;;;;;;;0.00;0.00;;;;;;;;;;5071116;28;20178;-79
2023/08/12 03:10:15;;;;;;;0.00;0.00;;;;;;;;;;5071887;28;20076;-78
2023/08/12 03:12:41;;;;;;;0.00;0.00;;;;;;;;;;5072280;28;20037;-79
2023/08/12 03:15:07;;;;;;;0.00;0.00;;;;;;;;;;5072105;28;20101;-78
2023/08/12 03:17:34;;;;;;;0.00;0.00;;;;;;;;;;5072271;28;20145;-79
2023/08/12 03:20:00;;;;;;;0.00;0.00;;;;;;;;;;5070423;28;20403;-79
2023/08/12 03:22:27;;;;;;;0.00;0.00;;;;;;;;;;5072072;28;20044;-79
2023/08/12 03:24:53;;;;;;;0.00;0.00;;;;;;;;;;5072181;28;20080;-79
2023/08/12 03:27:19;;;;;;;0.00;0.00;;;;;;;;;;5070984;28;20050;-79
2023/08/12 03:29:46;;;;;;;0.00;0.00;;;;;;;;;;5070755;28;20476;-78
2023/08/12 03:32:12;;;;;;;0.00;0.00;;;;;;;;;;5071840;28;20040;-79
2023/08/12 03:34:38;;;;;;;0.00;0.00;;;;;;;;;;5071794;28;20110;-78
2023/08/12 03:37:04;;;;;;;0.00;0.00;;;;;;;;;;5070609;28;20052;-79
2023/08/12 03:39:30;;;;;;;0.00;0.00;;;;;;;;;;5071709;28;20049;-78
2023/08/12 03:41:56;;;;;;;0.00;0.00;;;;;;;;;;5070559;28;20077;-78
2023/08/12 03:44:22;;;;;;;0.00;0.00;;;;;;;;;;5071853;28;20119;-79
2023/08/12 03:46:48;;;;;;;0.00;0.00;;;;;;;;;;5072068;28;20072;-78
2023/08/12 03:49:14;;;;;;;0.00;0.00;;;;;;;;;;5070582;28;20082;-79
2023/08/12 03:51:40;;;;;;;0.00;0.00;;;;;;;;;;5070282;28;20510;-79
2023/08/12 03:54:06;;;;;;;0.00;0.00;;;;;;;;;;5073936;28;20137;-79
2023/08/12 03:56:32;;;;;;;0.00;0.00;;;;;;;;;;5075079;28;20047;-79
2023/08/12 03:58:58;;;;;;;0.00;0.00;;;;;;;;;;5075203;28;20047;-79
2023/08/12 04:01:24;;;;;;;0.00;0.00;;;;;;;;;;5074952;28;20116;-79
2023/08/12 04:03:50;;;;;;;0.00;0.00;;;;;;;;;;5075254;28;20071;-78
2023/08/12 04:06:16;;;;;;;0.00;0.00;;;;;;;;;;5073366;28;20044;-79
2023/08/12 04:08:42;;;;;;;0.00;0.00;;;;;;;;;;5073956;28;20131;-78
2023/08/12 04:11:08;;;;;;;0.00;0.00;;;;;;;;;;5074567;28;20508;-79
2023/08/12 04:13:34;;;;;;;0.00;0.00;;;;;;;;;;5074960;28;20101;-78
2023/08/12 04:16:00;;;;;;;0.00;0.00;;;;;;;;;;5073253;28;20439;-79
2023/08/12 04:18:26;;;;;;;0.00;0.00;;;;;;;;;;5090368;28;20046;-78
2023/08/12 04:20:53;;;;;;;0.00;0.00;;;;;;;;;;5090415;28;20040;-78
2023/08/12 04:23:19;;;;;;;0.00;0.00;;;;;;;;;;5074788;28;20495;-79
2023/08/12 04:25:45;;;;;;;0.00;0.00;;;;;;;;;;5074495;28;20043;-79
2023/08/12 04:28:13;;;;;;;0.00;0.00;;;;;;;;;;5074770;28;20071;-79
2023/08/12 04:30:43;;;;;;;0.00;0.00;;;;;;;;;;5073090;28;20119;-78
2023/08/12 04:33:09;;;;;;;0.00;0.00;;;;;;;;;;5074497;28;20112;-79
2023/08/12 04:35:35;;;;;;;0.00;0.00;;;;;;;;;;5074296;28;20119;-78
2023/08/12 04:38:01;;;;;;;0.00;0.00;;;;;;;;;;5074605;28;20058;-79
2023/08/12 04:40:27;;;;;;;0.00;0.00;;;;;;;;;;5073001;28;20063;-79
2023/08/12 04:42:53;;;;;;;0.00;0.00;;;;;;;;;;5074410;28;20387;-78
2023/08/12 04:45:19;;;;;;;0.00;0.00;;;;;;;;;;5074117;28;20087;-78
2023/08/12 04:47:45;;;;;;;0.00;0.00;;;;;;;;;;5074442;28;20036;-78
2023/08/12 04:50:11;;;;;;;0.00;0.00;;;;;;;;;;5072656;28;20360;-79
2023/08/12 04:52:37;;;;;;;0.00;0.00;;;;;;;;;;5074442;28;20055;-79
2023/08/12 04:55:04;;;;;;;0.00;0.00;;;;;;;;;;5072767;28;20037;-78
2023/08/12 04:57:30;;;;;;;0.00;0.00;;;;;;;;;;5089702;28;20040;-79
2023/08/12 04:59:57;;;;;;;0.00;0.00;;;;;;;;;;5073118;28;20274;-78
2023/08/12 05:02:23;;;;;;;0.00;0.00;;;;;;;;;;5072641;28;20190;-79
2023/08/12 05:04:52;;;;;;;0.00;0.00;;;;;;;;;;5073575;28;20190;-78
2023/08/12 05:07:18;;;;;;;0.00;0.00;;;;;;;;;;5074021;28;20043;-79
2023/08/12 05:09:44;;;;;;;0.00;0.00;;;;;;;;;;5072272;28;20053;-79
2023/08/12 05:12:11;;;;;;;0.00;0.00;;;;;;;;;;5073769;28;20116;-79
2023/08/12 05:14:37;;;;;;;0.00;0.00;;;;;;;;;;5072421;28;20545;-78
2023/08/12 05:17:03;;;;;;;0.00;0.00;;;;;;;;;;5073561;28;20076;-79
2023/08/12 05:19:29;;;;;;;0.00;0.00;;;;;;;;;;5073863;28;20444;-79
2023/08/12 05:21:55;;;;;;;0.00;0.00;;;;;;;;;;5072331;28;20051;-79
2023/08/12 05:24:21;;;;;;;0.00;0.00;;;;;;;;;;5073849;28;20461;-78
2023/08/12 05:26:47;;;;;;;0.00;0.00;;;;;;;;;;5072194;28;20040;-79
2023/08/12 05:29:13;;;;;;;0.00;0.00;;;;;;;;;;5072021;28;20048;-79
2023/08/12 05:31:39;;;;;;;0.00;0.00;;;;;;;;;;5073165;28;20044;-79
2023/08/12 05:34:05;;;;;;;0.00;0.00;;;;;;;;;;5072093;28;20075;-79
2023/08/12 05:36:31;;;;;;;0.00;0.00;;;;;;;;;;5073269;28;20037;-79
2023/08/12 05:38:57;;;;;;;0.00;0.00;;;;;;;;;;5089021;28;20054;-79
2023/08/12 05:41:23;;;;;;;0.00;0.00;;;;;;;;;;5073043;28;20059;-79
2023/08/12 05:43:49;;;;;;;0.00;0.00;;;;;;;;;;5071727;28;20373;-79
2023/08/12 05:46:15;;;;;;;0.00;0.00;;;;;;;;;;5071591;28;20048;-79
2023/08/12 05:48:41;;;;;;;0.00;0.00;;;;;;;;;;5071895;28;20446;-81
2023/08/12 05:51:07;;;;;;;0.00;0.00;;;;;;;;;;5072801;28;20139;-79
2023/08/12 05:53:33;;;;;;;0.00;0.00;;;;;;;;;;5073153;28;20165;-79
2023/08/12 05:55:59;;;;;;;0.00;0.00;;;;;;;;;;5072876;28;20471;-79
2023/08/12 05:58:25;;;;;;;0.00;0.00;;;;;;;;;;5072967;28;20086;-82
2023/08/12 06:00:51;;;;;;;0.00;0.00;;;;;;;;;;5072528;28;20040;-79
2023/08/12 06:03:17;;;;;;;0.00;0.00;;;;;;;;;;5072403;28;20044;-79
2023/08/12 06:05:45;;;;;;;0.00;0.00;;;;;;;;;;5072133;28;20178;-80
2023/08/12 06:08:11;;;;;;;0.00;0.00;;;;;;;;;;5071737;28;20094;-80
2023/08/12 06:10:37;;;;;;;0.00;0.00;;;;;;;;;;5088394;28;20545;-78
2023/08/12 06:13:03;;;;;;;0.00;0.00;;;;;;;;;;5072488;28;20125;-78
2023/08/12 06:15:29;;;;;;;0.00;0.00;;;;;;;;;;5070661;28;20548;-78
2023/08/12 06:17:55;;;;;;;0.00;0.00;;;;;;;;;;5072890;28;20464;-79
2023/08/12 06:20:21;;;;;;;0.00;0.00;;;;;;;;;;5071730;28;20097;-79
2023/08/12 06:22:47;;;;;;;0.00;0.00;;;;;;;;;;5072555;28;20053;-80
2023/08/12 06:25:13;;;;;;;0.00;0.00;;;;;;;;;;5071283;28;20049;-80
2023/08/12 06:27:39;;;;;;;0.00;0.00;;;;;;;;;;5072223;28;20075;-81
2023/08/12 06:30:06;;;;;;;0.00;0.00;;;;;;;;;;5072719;28;20147;-80
2023/08/12 06:32:32;;;;;;;0.00;0.00;;;;;;;;;;5071390;28;20102;-81
2023/08/12 06:34:57;;;;;;;0.00;0.00;;;;;;;;;;5071144;28;20044;-80
2023/08/12 06:37:23;;;;;;;0.00;0.00;;;;;;;;;;5072363;28;20453;-80
2023/08/12 06:39:50;;;;;;;0.00;0.00;;;;;;;;;;5072310;28;20036;-81
2023/08/12 06:42:16;;;;;;;0.00;0.00;;;;;;;;;;5070912;28;20518;-81
2023/08/12 06:44:42;;;;;;;0.00;0.00;;;;;;;;;;5070937;28;20041;-83
2023/08/12 06:47:08;;;;;;;0.00;0.00;;;;;;;;;;5071220;28;20219;-82
2023/08/12 06:49:34;;;;;;;0.00;0.00;;;;;;;;;;5071128;28;20425;-83
2023/08/12 06:52:00;;;;;;;0.00;0.00;;;;;;;;;;5072214;28;20079;-83
2023/08/12 06:54:26;;;;;;;0.00;0.00;;;;;;;;;;5070884;28;20036;-83
2023/08/12 06:56:52;;;;;;;0.00;0.00;;;;;;;;;;5087752;28;20112;-80
2023/08/12 06:59:18;;;;;;;0.00;0.00;;;;;;;;;;5088019;28;20162;-81
2023/08/12 07:01:44;;;;;;;0.00;0.00;;;;;;;;;;5071995;28;20083;-81
2023/08/12 07:04:10;;;;;;;0.00;0.00;;;;;;;;;;5072306;28;20044;-80
2023/08/12 07:06:36;;;;;;;0.00;0.00;;;;;;;;;;5072170;28;20086;-81
2023/08/12 07:09:03;;;;;;;0.00;0.00;;;;;;;;;;5071009;28;20052;-80
2023/08/12 07:11:29;;;;;;;0.00;0.00;;;;;;;;;;5071669;28;20063;-81
2023/08/12 07:13:55;;;;;;;0.00;0.00;;;;;;;;;;5072130;28;20424;-81
2023/08/12 07:16:21;;;;;;;0.00;0.00;;;;;;;;;;5072668;28;20052;-80
2023/08/12 07:18:47;;;;;;;0.00;0.00;;;;;;;;;;5071064;28;20398;-81
2023/08/12 07:21:13;;;;;;;0.05;0.05;;;;;;;;;;5071020;28;20044;-80
2023/08/12 07:23:38;;;;;;;0.00;0.00;;;;;;;;;;5071929;28;20071;-81
2023/08/12 07:26:04;;;;;;;0.00;0.00;;;;;;;;;;5072179;28;20496;-81
2023/08/12 07:28:30;;;;;;;0.00;0.00;;;;;;;;;;5075770;28;20064;-81
2023/08/12 07:30:56;;;;;;;0.00;0.00;;;;;;;;;;5074305;28;20443;-81
2023/08/12 07:33:22;;;;;;;0.00;0.00;;;;;;;;;;5075798;28;20040;-81
2023/08/12 07:35:48;;;;;;;0.00;0.00;;;;;;;;;;5075686;28;20051;-81
2023/08/12 07:38:14;;;;;;;0.00;0.00;;;;;;;;;;5073978;28;20075;-81
2023/08/12 07:40:43;;;;;;;0.00;0.00;;;;;;;;;;5075469;28;20123;-81
2023/08/12 07:43:09;;;;;;;0.00;0.00;;;;;;;;;;5075471;28;20037;-80
2023/08/12 07:45:35;;;;;;;0.00;0.00;;;;;;;;;;5074080;28;20054;-81
2023/08/12 07:48:01;;;;;;;0.00;0.00;;;;;;;;;;5075317;28;20040;-81
2023/08/12 07:50:27;;;;;;;0.00;0.00;;;;;;;;;;5075195;28;20177;-81
2023/08/12 07:52:53;;;;;;;0.00;0.00;;;;;;;;;;5074033;28;20048;-83
2023/08/12 07:55:19;;;;;;;0.00;0.00;;;;;;;;;;5076198;28;20131;-87
2023/08/12 07:57:45;;;;;;;0.00;0.00;;;;;;;;;;5076103;28;20040;-81
2023/08/12 08:00:12;;;;;;;0.00;0.00;;;;;;;;;;5077609;28;20204;-82
2023/08/12 08:02:38;;;;;;;0.00;0.00;;;;;;;;;;5077492;28;20085;-81
2023/08/12 08:05:04;;;;;;;0.00;0.00;;;;;;;;;;5074258;28;20131;-81
2023/08/12 08:07:30;;;;;;;0.00;0.00;;;;;;;;;;5073927;28;20041;-81
2023/08/12 08:09:56;;;;;;;0.00;0.00;;;;;;;;;;5080743;28;20060;-80
2023/08/12 08:12:22;;;;;;;0.00;0.00;;;;;;;;;;5077357;28;20036;-80
2023/08/12 08:14:48;;;;;;;0.00;0.00;;;;;;;;;;5075678;28;20068;-84
2023/08/12 08:17:14;;;;;;;0.00;0.00;;;;;;;;;;5073364;28;20170;-81
2023/08/12 08:19:40;;;;;;;0.00;0.00;;;;;;;;;;5074995;28;20047;-81
2023/08/12 08:22:06;;;;;;;0.00;0.00;;;;;;;;;;5074737;28;20040;-81
2023/08/12 08:24:32;;;;;;;0.00;0.00;;;;;;;;;;5075497;28;20391;-80
2023/08/12 08:26:58;;;;;;;0.00;0.00;;;;;;;;;;5074740;28;20040;-80
2023/08/12 08:29:24;;;;;;;0.00;0.00;;;;;;;;;;5074285;28;20048;-80
2023/08/12 08:31:50;;;;;;;0.00;0.00;;;;;;;;;;5073277;28;20078;-80
2023/08/12 08:34:16;;;;;;;0.00;0.00;;;;;;;;;;5073268;28;20045;-80
2023/08/12 08:36:42;;;;;;;0.00;0.00;;;;;;;;;;5074292;28;20044;-81
2023/08/12 08:39:08;;;;;;;0.00;0.00;;;;;;;;;;5073294;28;20045;-81
2023/08/12 08:41:38;;;;;;;0.00;0.00;;;;;;;;;;5072854;28;20043;-81
2023/08/12 08:44:07;;;;;;;0.00;0.00;;;;;;;;;;5074083;28;20043;-81
2023/08/12 08:46:33;;;;;;;0.00;0.00;;;;;;;;;;5072848;28;20438;-81
2023/08/12 08:49:00;;;;;;;0.00;0.00;;;;;;;;;;5074113;28;20044;-82
2023/08/12 08:51:27;;;;;;;0.00;0.00;;;;;;;;;;5074095;28;20086;-82
2023/08/12 08:53:55;;;;;;;0.00;0.00;;;;;;;;;;5074089;28;20093;-82
2023/08/12 08:56:21;;;;;;;0.00;0.00;;;;;;;;;;5074289;28;20049;-84
2023/08/12 08:58:48;;;;;;;0.00;0.00;;;;;;;;;;5072539;28;20046;-81
2023/08/12 09:01:15;;;;;;;0.00;0.00;;;;;;;;;;5072859;28;20056;-81
2023/08/12 09:03:41;;;;;;;0.00;0.00;;;;;;;;;;5073817;28;20045;-82
2023/08/12 09:06:08;;;;;;;0.00;0.00;;;;;;;;;;5073772;28;20484;-80
2023/08/12 09:08:34;;;;;;;0.00;0.00;;;;;;;;;;5073652;28;20119;-81
2023/08/12 09:11:01;;;;;;;0.00;0.00;;;;;;;;;;5073670;28;20198;-80
2023/08/12 09:13:28;;;;;;;0.00;0.00;;;;;;;;;;5072384;28;20412;-81
2023/08/12 09:15:54;;;;;;;0.00;0.00;;;;;;;;;;5089347;28;20041;-80
2023/08/12 09:18:24;;;;;;;0.00;0.00;;;;;;;;;;5072106;28;20613;-80
2023/08/12 09:20:50;;;;;;;0.00;0.00;;;;;;;;;;5072061;28;20048;-80
2023/08/12 09:23:17;;;;;;;0.00;0.00;;;;;;;;;;5073418;28;20151;-81
2023/08/12 09:25:46;;;;;;;0.00;0.00;;;;;;;;;;5072048;28;20161;-81
2023/08/12 09:28:13;;;;;;;0.00;0.00;;;;;;;;;;5071862;28;20044;-81
2023/08/12 09:30:39;;;;;;;0.00;0.00;;;;;;;;;;5071876;28;20045;-80
2023/08/12 09:33:07;;;;;;;0.00;0.00;;;;;;;;;;5073041;28;20046;-80
2023/08/12 09:35:37;;;;;;;0.00;0.00;;;;;;;;;;5073459;28;20055;-80
2023/08/12 09:38:04;;;;;;;0.00;0.00;;;;;;;;;;5073139;28;20123;-81
2023/08/12 09:40:31;;;;;;;0.00;0.00;;;;;;;;;;5073151;28;20044;-80
2023/08/12 09:42:57;;;;;;;0.00;0.00;;;;;;;;;;5072950;28;20049;-81
2023/08/12 09:45:26;;;;;;;0.00;0.00;;;;;;;;;;5071688;28;20449;-80
2023/08/12 09:47:53;;;;;;;0.00;0.00;;;;;;;;;;5073134;28;20040;-80
2023/08/12 09:50:21;;;;;;;0.00;0.00;;;;;;;;;;5054850;28;20048;-80
2023/08/12 09:52:47;;;;;;;0.00;0.00;;;;;;;;;;5073332;28;20033;-80
2023/08/12 09:55:15;;;;;;;0.00;0.00;;;;;;;;;;5072839;28;20522;-80
2023/08/12 09:57:43;;;;;;;0.00;0.00;;;;;;;;;;5072989;28;20044;-80
2023/08/12 10:00:16;;;;;;;0.00;0.00;;;;;;;;;;5088146;28;20550;-80
2023/08/12 10:02:43;;;;;;;0.00;0.00;;;;;;;;;;5071937;28;20379;-80
2023/08/12 10:05:12;;;;;;;0.00;0.00;;;;;;;;;;5088201;28;20050;-79
2023/08/12 10:07:40;;;;;;;0.00;0.00;;;;;;;;;;5072724;28;20040;-80
2023/08/12 10:10:07;;;;;;;0.00;0.00;;;;;;;;;;5071116;28;20674;-80
2023/08/12 10:12:34;;;;;;;0.00;0.00;;;;;;;;;;5071214;28;20047;-80
2023/08/12 10:15:01;;;;;;;0.00;0.00;;;;;;;;;;5072306;28;20100;-80
2023/08/12 10:17:27;;;;;;;0.00;0.00;;;;;;;;;;5071295;28;20066;-80
2023/08/12 10:19:57;;;;;;;0.00;0.00;;;;;;;;;;5070949;28;20525;-81
2023/08/12 10:22:25;;;;;;;0.00;0.00;;;;;;;;;;5071428;28;20041;-81
2023/08/12 10:24:51;;;;;;;0.00;0.00;;;;;;;;;;5087789;28;20068;-80
2023/08/12 10:27:18;;;;;;;0.00;0.00;;;;;;;;;;5070953;28;20071;-80
2023/08/12 10:29:44;;;;;;;0.00;0.00;;;;;;;;;;5072263;28;20070;-80
2023/08/12 10:32:10;;;;;;;0.00;0.00;;;;;;;;;;5070998;28;20075;-80
2023/08/12 10:34:36;;;;;;;0.00;0.00;;;;;;;;;;5072269;28;20453;-80
2023/08/12 10:37:04;;;;;;;0.00;0.00;;;;;;;;;;5088073;28;20093;-81
2023/08/12 10:39:32;;;;;;;0.00;0.00;;;;;;;;;;5070702;28;20045;-81
2023/08/12 10:41:58;;;;;;;0.00;0.00;;;;;;;;;;5072185;28;20055;-80
2023/08/12 10:44:39;;;;;;;0.00;0.00;;;;;;;;;;5072154;28;20040;-81
2023/08/12 10:47:11;;;;;;;0.00;0.00;;;;;;;;;;5072495;28;20048;-80
2023/08/12 10:49:44;;;;;;;0.00;0.00;;;;;;;;;;5072107;28;20469;-80
2023/08/12 10:52:27;;;;;;;0.00;0.00;;;;;;;;;;5087762;28;20475;-81
2023/08/12 10:54:53;;;;;;;0.00;0.00;;;;;;;;;;5072193;28;20036;-81
2023/08/12 10:57:34;;;;;;;0.00;0.00;;;;;;;;;;5071199;28;20044;-80
2023/08/12 11:00:00;;;;;;;0.00;0.00;;;;;;;;;;5087539;28;20045;-80
2023/08/12 11:02:32;;;;;;;0.00;0.00;;;;;;;;;;5074630;28;20040;-81
2023/08/12 11:05:02;;;;;;;0.00;0.00;;;;;;;;;;5075803;28;20071;-81
2023/08/12 11:07:34;;;;;;;0.00;0.00;;;;;;;;;;5076117;28;20459;-81
2023/08/12 11:10:04;;;;;;;0.00;0.00;;;;;;;;;;5091442;28;20074;-81
2023/08/12 11:12:33;;;;;;;0.00;0.00;;;;;;;;;;5076051;28;20043;-80
2023/08/12 11:15:00;;;;;;;0.00;0.00;;;;;;;;;;5075796;28;20422;-80
2023/08/12 11:17:33;;;;;;;0.00;0.00;;;;;;;;;;5074611;28;20468;-80
2023/08/12 11:20:00;;;;;;;0.00;0.00;;;;;;;;;;5075805;28;20045;-80
2023/08/12 11:22:26;;;;;;;0.00;0.00;;;;;;;;;;5076064;28;20044;-79
2023/08/12 11:24:53;;;;;;;0.00;0.00;;;;;;;;;;5074521;28;20121;-80
2023/08/12 11:27:19;;;;;;;0.00;0.00;;;;;;;;;;5075631;28;20455;-80
2023/08/12 11:29:45;;;;;;;0.00;0.00;;;;;;;;;;5073958;28;20522;-80
2023/08/12 11:32:11;;;;;;;0.00;0.00;;;;;;;;;;5075717;28;20040;-80
2023/08/12 11:34:37;;;;;;;0.00;0.00;;;;;;;;;;5075503;28;20075;-80
2023/08/12 11:37:03;;;;;;;0.00;0.00;;;;;;;;;;5075773;28;20049;-80
2023/08/12 11:39:29;;;;;;;0.00;0.00;;;;;;;;;;5075339;28;20089;-80
2023/08/12 11:41:57;;;;;;;0.00;0.00;;;;;;;;;;5075801;28;20036;-80
2023/08/12 11:44:24;;;;;;;0.00;0.00;;;;;;;;;;5075333;28;20487;-80
2023/08/12 11:46:51;;;;;;;0.00;0.00;;;;;;;;;;5074156;28;20036;-80
2023/08/12 11:49:17;;;;;;;0.00;0.00;;;;;;;;;;5075264;28;20046;-80
2023/08/12 11:51:44;;;;;;;0.00;0.00;;;;;;;;;;5075900;28;20034;-80
2023/08/12 11:54:10;;;;;;;0.00;0.00;;;;;;;;;;5075620;28;20378;-80
2023/08/12 11:56:36;;;;;;;0.00;0.00;;;;;;;;;;5074570;28;20036;-80
2023/08/12 11:59:02;;;;;;;0.00;0.00;;;;;;;;;;5075295;28;20047;-80
2023/08/12 12:01:28;;;;;;;0.00;0.00;;;;;;;;;;5075245;28;20040;-80
2023/08/12 12:03:55;;;;;;;0.00;0.00;;;;;;;;;;5074055;28;20043;-80
2023/08/12 12:06:39;;;;;;;0.00;0.00;;;;;;;;;;5073404;28;20051;-80
2023/08/12 12:09:09;;;;;;;0.00;0.00;;;;;;;;;;5073835;28;20037;-79
2023/08/12 12:11:36;;;;;;;0.00;0.00;;;;;;;;;;5074629;28;20045;-79
2023/08/12 12:14:03;;;;;;;0.00;0.00;;;;;;;;;;5072280;28;20101;-79
2023/08/12 12:16:43;;;;;;;0.00;0.00;;;;;;;;;;5074725;28;20045;-80
2023/08/12 12:19:10;;;;;;;0.00;0.00;;;;;;;;;;5074659;28;20055;-80
2023/08/12 12:21:40;;;;;;;0.00;0.00;;;;;;;;;;5074695;28;20072;-80
2023/08/12 12:24:06;;;;;;;0.00;0.00;;;;;;;;;;5074755;28;20048;-80
2023/08/12 12:26:33;;;;;;;0.00;0.00;;;;;;;;;;5074561;28;20094;-80
2023/08/12 12:28:59;;;;;;;0.00;0.00;;;;;;;;;;5073232;28;20052;-79
2023/08/12 12:31:26;;;;;;;0.00;0.00;;;;;;;;;;5074289;28;20529;-80
2023/08/12 12:33:52;;;;;;;0.00;0.00;;;;;;;;;;5074579;28;20033;-79
2023/08/12 12:36:18;;;;;;;0.00;0.00;;;;;;;;;;5072890;28;20407;-79
2023/08/12 12:38:44;;;;;;;0.00;0.00;;;;;;;;;;5074866;28;20063;-79
2023/08/12 12:41:10;;;;;;;0.00;0.00;;;;;;;;;;5074293;28;20218;-79
2023/08/12 12:43:36;;;;;;;0.00;0.00;;;;;;;;;;5073283;28;20084;-79
2023/08/12 12:46:02;;;;;;;0.00;0.00;;;;;;;;;;5074073;28;20041;-79
2023/08/12 12:48:28;;;;;;;0.00;0.00;;;;;;;;;;5074464;28;20093;-79
2023/08/12 12:50:54;;;;;;;0.00;0.00;;;;;;;;;;5072801;28;20048;-79
2023/08/12 12:53:20;;;;;;;0.00;0.00;;;;;;;;;;5072960;28;20083;-80
2023/08/12 12:55:46;;;;;;;0.00;0.00;;;;;;;;;;5074009;28;20040;-79
2023/08/12 12:58:12;;;;;;;0.00;0.00;;;;;;;;;;5072699;28;20413;-79
2023/08/12 13:00:38;;;;;;;0.00;0.00;;;;;;;;;;5073787;28;20052;-79
2023/08/12 13:03:04;;;;;;;0.00;0.00;;;;;;;;;;5073133;28;20135;-80
2023/08/12 13:05:30;;;;;;;0.00;0.00;;;;;;;;;;5073503;28;20040;-79
2023/08/12 13:07:56;;;;;;;0.00;0.00;;;;;;;;;;5074014;28;20040;-79
2023/08/12 13:10:22;;;;;;;0.00;0.00;;;;;;;;;;5073319;28;20056;-79
2023/08/12 13:12:48;;;;;;;0.00;0.00;;;;;;;;;;5072378;28;20404;-80
2023/08/12 13:15:14;;;;;;;0.00;0.00;;;;;;;;;;5072422;28;20044;-80
2023/08/12 13:17:39;;;;;;;0.00;0.00;;;;;;;;;;5073855;28;20525;-81
2023/08/12 13:20:06;;;;;;;0.00;0.00;;;;;;;;;;5072290;28;20119;-81
2023/08/12 13:22:33;;;;;;;0.00;0.00;;;;;;;;;;5072303;28;20101;-81
2023/08/12 13:24:59;;;;;;;0.00;0.00;;;;;;;;;;5072977;28;20480;-81
2023/08/12 13:27:25;;;;;;;0.20;0.00;;;;;;;;;;5073817;28;20071;-81
2023/08/12 13:29:51;;;;;;;0.00;0.00;;;;;;;;;;5089203;28;20361;-81
2023/08/12 13:32:17;;;;;;;0.00;0.00;;;;;;;;;;5072981;28;20040;-81
2023/08/12 13:34:46;;;;;;;0.00;0.00;;;;;;;;;;5072188;28;20106;-81
2023/08/12 13:37:12;;;;;;;0.00;0.00;;;;;;;;;;5073263;28;20080;-81
2023/08/12 13:39:38;;;;;;;0.00;0.00;;;;;;;;;;5073046;28;20158;-81
2023/08/12 13:42:04;;;;;;;0.00;0.00;;;;;;;;;;5071802;28;20040;-81
2023/08/12 13:44:30;;;;;;;0.00;0.00;;;;;;;;;;5071958;28;20090;-81
2023/08/12 13:46:56;;;;;;;0.00;0.00;;;;;;;;;;5072771;28;20047;-81
2023/08/12 13:49:22;;;;;;;0.00;0.00;;;;;;;;;;5072703;28;20104;-81
2023/08/12 13:51:48;;;;;;;0.00;0.00;;;;;;;;;;5072897;28;20538;-80
2023/08/12 13:54:14;;;;;;;0.00;0.00;;;;;;;;;;5072745;28;20391;-80
2023/08/12 13:56:39;;;;;;;0.00;0.00;;;;;;;;;;5072694;28;20040;-81
2023/08/12 13:59:05;;;;;;;0.00;0.00;;;;;;;;;;5088504;28;20352;-81
2023/08/12 14:01:31;;;;;;;0.00;0.00;;;;;;;;;;5072629;28;20041;-81
2023/08/12 14:03:57;;;;;;;0.00;0.00;;;;;;;;;;5072730;28;20036;-81
2023/08/12 14:06:23;;;;;;;0.00;0.00;;;;;;;;;;5072558;28;20037;-81
2023/08/12 14:08:49;;;;;;;0.00;0.00;;;;;;;;;;5072637;28;20491;-81
2023/08/12 14:11:15;;;;;;;0.00;0.00;;;;;;;;;;5072309;28;20097;-81
2023/08/12 14:13:41;;;;;;;0.00;0.00;;;;;;;;;;5072655;28;20040;-81
2023/08/12 14:16:07;;;;;;;1.17;0.63;;;;;;;;;;5070809;28;20392;-81
2023/08/12 14:18:33;;;;;;;0.00;0.00;;;;;;;;;;5072421;28;20041;-81
2023/08/12 14:20:59;;;;;;;0.00;0.00;;;;;;;;;;5072270;28;20098;-81
2023/08/12 14:23:25;;;;;;;0.00;0.00;;;;;;;;;;5072522;28;20115;-81
2023/08/12 14:25:51;;;;;;;0.00;0.00;;;;;;;;;;5070838;28;20059;-81
2023/08/12 14:28:17;;;;;;;0.00;0.00;;;;;;;;;;5071105;28;20369;-81
2023/08/12 14:30:43;;;;;;;0.00;0.00;;;;;;;;;;5072718;28;20028;-81
2023/08/12 14:33:09;;;;;;;0.00;0.00;;;;;;;;;;5070933;28;20040;-81
2023/08/12 14:35:35;;;;;;;0.00;0.00;;;;;;;;;;5070595;28;20040;-81
2023/08/12 14:38:01;;;;;;;0.00;0.00;;;;;;;;;;5070511;28;20059;-81
2023/08/12 14:40:28;;;;;;;0.00;0.00;;;;;;;;;;5072213;28;20514;-81